Time;durP1;ratioP1;P1;durP2;ratioP2;P2;SDS_P1;SDS_P2;PMS_P1;PMS_P2;Temp;Humidity;BMP_temperature;BMP_pressure;BME280_temperature;BME280_humidity;BME280_pressure;Samples;Min_cycle;Max_cycle;Signal;HPM_P1;HPM_P2
2023/05/23 00:01:30;;;;;;;20.65;7.47;;;14.50;99.90;;;;;;5013734;28;20030;-71
2023/05/23 00:03:58;;;;;;;20.35;6.97;;;14.50;99.90;;;;;;5013584;28;20105;-70
2023/05/23 00:06:24;;;;;;;13.60;6.90;;;14.40;99.90;;;;;;5013586;28;20037;-70
2023/05/23 00:08:49;;;;;;;19.75;8.40;;;14.40;99.90;;;;;;5013598;28;20052;-70
2023/05/23 00:11:15;;;;;;;20.45;7.45;;;14.40;99.90;;;;;;5013336;28;20076;-71
2023/05/23 00:13:41;;;;;;;17.52;7.93;;;14.50;99.90;;;;;;5013411;28;20026;-71
2023/05/23 00:16:08;;;;;;;22.95;8.35;;;14.40;99.90;;;;;;5016191;28;20026;-71
2023/05/23 00:18:35;;;;;;;22.52;9.80;;;14.40;99.90;;;;;;5016146;28;20021;-72
2023/05/23 00:21:01;;;;;;;24.48;7.72;;;14.30;99.90;;;;;;5014446;28;20478;-72
2023/05/23 00:23:28;;;;;;;15.68;8.02;;;14.30;99.90;;;;;;5013533;28;20028;-72
2023/05/23 00:25:54;;;;;;;23.27;7.75;;;14.20;99.90;;;;;;5013777;28;20037;-71
2023/05/23 00:28:21;;;;;;;23.38;7.95;;;14.20;99.90;;;;;;5013912;28;20096;-72
2023/05/23 00:30:47;;;;;;;17.17;7.68;;;14.10;99.90;;;;;;5013781;28;20030;-72
2023/05/23 00:33:15;;;;;;;20.67;7.82;;;14.20;99.90;;;;;;5013491;28;20037;-73
2023/05/23 00:35:41;;;;;;;15.63;7.50;;;14.10;99.90;;;;;;5013419;28;20037;-71
2023/05/23 00:38:07;;;;;;;36.25;8.77;;;14.00;99.90;;;;;;5013234;28;20040;-70
2023/05/23 00:40:34;;;;;;;17.98;7.20;;;14.00;99.90;;;;;;5015535;28;20021;-71
2023/05/23 00:43:00;;;;;;;19.17;7.40;;;13.90;99.90;;;;;;5013203;28;20057;-70
2023/05/23 00:45:26;;;;;;;17.63;7.20;;;14.00;99.90;;;;;;5028316;28;20030;-71
2023/05/23 00:47:53;;;;;;;17.15;7.32;;;13.90;99.90;;;;;;5013064;28;20501;-70
2023/05/23 00:50:20;;;;;;;19.50;7.38;;;13.90;99.90;;;;;;5013298;28;20068;-72
2023/05/23 00:52:48;;;;;;;18.83;7.82;;;14.00;99.90;;;;;;5013018;28;20026;-71
2023/05/23 00:55:14;;;;;;;16.27;6.43;;;14.00;99.90;;;;;;5028219;28;20113;-71
2023/05/23 00:57:43;;;;;;;15.27;7.13;;;14.00;99.90;;;;;;5013063;28;20058;-71
2023/05/23 01:00:13;;;;;;;16.35;5.40;;;13.90;99.90;;;;;;5012886;28;20124;-71
2023/05/23 01:02:46;;;;;;;19.23;6.20;;;13.90;99.90;;;;;;5012675;28;20036;-73
2023/05/23 01:05:16;;;;;;;12.80;6.72;;;14.00;99.90;;;;;;5012170;28;20121;-71
2023/05/23 01:07:42;;;;;;;14.35;6.47;;;13.90;99.90;;;;;;5012682;28;20029;-71
2023/05/23 01:10:10;;;;;;;11.95;5.60;;;13.80;99.90;;;;;;5016382;28;20030;-71
2023/05/23 01:12:38;;;;;;;13.13;4.78;;;13.70;99.90;;;;;;5016562;28;20034;-72
2023/05/23 01:15:08;;;;;;;11.25;4.72;;;13.70;99.90;;;;;;5031766;28;20033;-71
2023/05/23 01:17:58;;;;;;;12.88;4.50;;;13.80;99.90;;;;;;5016539;28;20022;-71
2023/05/23 01:20:30;;;;;;;12.40;4.63;;;13.80;99.90;;;;;;5016517;28;20034;-71
2023/05/23 01:23:05;;;;;;;6.50;4.13;;;13.70;99.90;;;;;;5016484;28;20125;-71
2023/05/23 01:25:49;;;;;;;7.80;4.00;;;13.80;99.90;;;;;;5016249;28;20042;-72
2023/05/23 01:28:18;;;;;;;4.68;3.42;;;13.70;99.90;;;;;;5016591;28;20422;-72
2023/05/23 01:30:46;;;;;;;14.57;3.95;;;13.70;99.90;;;;;;5015025;28;20390;-72
2023/05/23 01:33:14;;;;;;;;;;;13.70;99.90;;;;;;5016641;28;20044;-71
2023/05/23 01:35:42;;;;;;;8.38;3.35;;;13.80;99.90;;;;;;5015883;28;20417;-72
2023/05/23 01:38:08;;;;;;;6.18;3.45;;;13.80;99.90;;;;;;5016104;28;20022;-71
2023/05/23 01:40:36;;;;;;;8.32;3.95;;;13.80;99.90;;;;;;5016047;28;20285;-72
2023/05/23 01:43:02;;;;;;;8.68;4.20;;;13.70;99.90;;;;;;5016038;28;20029;-71
2023/05/23 01:45:29;;;;;;;4.97;3.38;;;13.70;99.90;;;;;;5016053;28;20111;-71
2023/05/23 01:47:55;;;;;;;8.23;4.10;;;13.80;99.90;;;;;;5015956;28;20036;-71
2023/05/23 01:50:23;;;;;;;9.00;4.75;;;13.80;99.90;;;;;;5016027;28;20028;-71
2023/05/23 01:52:51;;;;;;;8.35;3.58;;;13.80;99.90;;;;;;5014551;28;20445;-72
2023/05/23 01:55:21;;;;;;;14.30;3.88;;;13.70;99.90;;;;;;5016104;28;20080;-71
2023/05/23 01:57:50;;;;;;;11.38;4.38;;;13.70;99.90;;;;;;5015785;28;20030;-71
2023/05/23 02:00:16;;;;;;;8.40;5.28;;;13.70;99.90;;;;;;5015674;28;20026;-71
2023/05/23 02:02:42;;;;;;;11.00;4.32;;;13.70;99.90;;;;;;5015699;28;20037;-71
2023/05/23 02:05:09;;;;;;;7.35;4.03;;;13.70;99.90;;;;;;5030924;28;20076;-72
2023/05/23 02:07:35;;;;;;;10.23;5.03;;;13.70;99.90;;;;;;5015656;28;20057;-71
2023/05/23 02:10:00;;;;;;;11.95;4.70;;;13.70;99.90;;;;;;5015583;28;20022;-71
2023/05/23 02:12:26;;;;;;;17.35;4.65;;;13.70;99.90;;;;;;5015338;28;20097;-72
2023/05/23 02:14:54;;;;;;;9.45;4.55;;;13.70;99.90;;;;;;5015442;28;20423;-73
2023/05/23 02:17:20;;;;;;;12.13;4.90;;;13.70;99.90;;;;;;5015495;28;20042;-71
2023/05/23 02:19:48;;;;;;;16.98;5.15;;;13.70;99.90;;;;;;5012627;28;20517;-71
2023/05/23 02:22:14;;;;;;;12.50;4.75;;;13.70;99.90;;;;;;5015620;28;20033;-71
2023/05/23 02:24:40;;;;;;;15.10;4.35;;;13.80;99.90;;;;;;5015067;28;20121;-72
2023/05/23 02:27:07;;;;;;;11.70;4.90;;;13.80;99.90;;;;;;5030425;28;20103;-71
2023/05/23 02:29:33;;;;;;;20.42;5.53;;;13.90;99.90;;;;;;4996860;28;20589;-71
2023/05/23 02:32:17;;;;;;;21.20;5.13;;;13.90;99.90;;;;;;5014742;28;20053;-71
2023/05/23 02:34:45;;;;;;;15.85;5.15;;;14.00;99.90;;;;;;5014994;28;20026;-71
2023/05/23 02:37:12;;;;;;;;;;;14.00;99.90;;;;;;5015343;28;20029;-71
2023/05/23 02:39:38;;;;;;;18.90;5.28;;;14.00;99.90;;;;;;5015081;28;19910;-71
2023/05/23 02:42:04;;;;;;;16.33;5.38;;;13.90;99.90;;;;;;5014941;28;20037;-71
2023/05/23 02:44:29;;;;;;;20.38;6.07;;;13.80;99.90;;;;;;5014926;28;20030;-71
2023/05/23 02:46:55;;;;;;;19.73;5.00;;;13.80;99.90;;;;;;5015168;28;20022;-71
2023/05/23 02:49:21;;;;;;;10.07;4.40;;;13.80;99.90;;;;;;5014837;28;20034;-71
2023/05/23 02:51:46;;;;;;;19.45;5.32;;;13.80;99.90;;;;;;5014642;28;20030;-71
2023/05/23 02:54:12;;;;;;;17.00;5.13;;;13.80;99.90;;;;;;5014692;28;20026;-71
2023/05/23 02:56:37;;;;;;;15.55;4.78;;;13.80;99.90;;;;;;5014681;28;20026;-73
2023/05/23 02:59:05;;;;;;;18.25;4.95;;;13.90;99.90;;;;;;5029890;28;20088;-71
2023/05/23 03:01:33;;;;;;;18.10;5.22;;;13.80;99.90;;;;;;5014575;28;20371;-72
2023/05/23 03:03:59;;;;;;;17.42;5.65;;;13.80;99.90;;;;;;5014575;28;20056;-71
2023/05/23 03:06:26;;;;;;;22.50;6.28;;;13.90;99.90;;;;;;5014166;28;20038;-71
2023/05/23 03:08:52;;;;;;;20.27;7.03;;;13.80;99.90;;;;;;5014436;28;20030;-71
2023/05/23 03:11:17;;;;;;;12.73;5.00;;;13.80;99.90;;;;;;5014291;28;20030;-71
2023/05/23 03:13:43;;;;;;;23.70;6.50;;;13.70;99.90;;;;;;5014321;28;20033;-72
2023/05/23 03:16:11;;;;;;;19.75;4.93;;;13.70;99.90;;;;;;5029418;28;20041;-72
2023/05/23 03:18:36;;;;;;;;;;;13.70;99.90;;;;;;5026729;28;20034;-71
2023/05/23 03:21:02;;;;;;;16.27;5.18;;;13.70;99.90;;;;;;5014224;28;19917;-71
2023/05/23 03:23:29;;;;;;;24.45;5.82;;;13.80;99.90;;;;;;5014218;28;20030;-72
2023/05/23 03:25:54;;;;;;;21.75;7.68;;;13.70;99.90;;;;;;5029079;28;20053;-72
2023/05/23 03:28:21;;;;;;;17.77;5.88;;;13.60;99.90;;;;;;5014029;28;20398;-71
2023/05/23 03:30:47;;;;;;;18.90;5.75;;;13.60;99.90;;;;;;5013714;28;20033;-72
2023/05/23 03:33:12;;;;;;;16.42;5.70;;;13.60;99.90;;;;;;5013862;28;20109;-72
2023/05/23 03:35:39;;;;;;;15.32;4.88;;;13.50;99.90;;;;;;5013564;28;20088;-72
2023/05/23 03:38:04;;;;;;;24.55;6.15;;;13.50;99.90;;;;;;5028983;28;20050;-71
2023/05/23 03:40:30;;;;;;;14.73;5.95;;;13.50;99.90;;;;;;5014149;28;20061;-71
2023/05/23 03:43:05;;;;;;;20.02;5.03;;;13.40;99.90;;;;;;5029129;28;20497;-72
2023/05/23 03:45:31;;;;;;;21.40;4.82;;;13.30;99.90;;;;;;5013884;28;20375;-72
2023/05/23 03:47:58;;;;;;;17.30;4.95;;;13.30;99.90;;;;;;5013727;28;20057;-71
2023/05/23 03:50:24;;;;;;;14.73;4.18;;;13.40;99.90;;;;;;5013732;28;20037;-72
2023/05/23 03:52:49;;;;;;;14.10;4.50;;;13.30;99.90;;;;;;5011892;28;20437;-72
2023/05/23 03:55:15;;;;;;;8.35;4.28;;;13.30;99.90;;;;;;5011746;28;20482;-71
2023/05/23 03:57:41;;;;;;;17.08;5.55;;;13.20;99.90;;;;;;5013600;28;20030;-72
2023/05/23 04:00:10;;;;;;;16.77;4.80;;;13.20;99.90;;;;;;5013557;28;20094;-71
2023/05/23 04:02:38;;;;;;;21.65;5.78;;;13.10;99.90;;;;;;5013481;28;20054;-71
2023/05/23 04:05:05;;;;;;;19.80;4.55;;;13.20;99.90;;;;;;5011993;28;20034;-72
2023/05/23 04:07:33;;;;;;;16.23;4.60;;;13.10;99.90;;;;;;5013485;28;20022;-71
2023/05/23 04:10:05;;;;;;;14.73;6.10;;;13.10;99.90;;;;;;5013651;28;20512;-71
2023/05/23 04:12:31;;;;;;;11.52;3.63;;;13.10;99.90;;;;;;5013321;28;20057;-71
2023/05/23 04:14:56;;;;;;;12.23;3.10;;;13.00;99.90;;;;;;5013330;28;20053;-72
2023/05/23 04:17:23;;;;;;;11.02;4.13;;;13.00;99.90;;;;;;5013303;28;20513;-72
2023/05/23 04:19:49;;;;;;;10.25;2.60;;;13.00;99.90;;;;;;5013405;28;20199;-72
2023/05/23 04:22:15;;;;;;;7.13;3.47;;;12.90;99.90;;;;;;5013109;28;20034;-71
2023/05/23 04:24:41;;;;;;;8.43;3.03;;;12.90;99.90;;;;;;5013116;28;20402;-71
2023/05/23 04:27:07;;;;;;;13.50;3.28;;;12.90;99.90;;;;;;5013213;28;20049;-71
2023/05/23 04:29:34;;;;;;;10.85;3.38;;;12.80;99.90;;;;;;5011304;28;20450;-71
2023/05/23 04:32:03;;;;;;;4.97;2.60;;;12.80;99.90;;;;;;5012860;28;20120;-72
2023/05/23 04:34:29;;;;;;;10.25;3.10;;;12.90;99.90;;;;;;5012789;28;20026;-71
2023/05/23 04:36:55;;;;;;;6.68;3.00;;;12.80;99.90;;;;;;5012994;28;20014;-72
2023/05/23 04:39:20;;;;;;;8.23;3.20;;;12.80;99.90;;;;;;5012884;28;20036;-71
2023/05/23 04:41:46;;;;;;;12.98;2.70;;;12.80;99.90;;;;;;5013106;28;20087;-71
2023/05/23 04:44:13;;;;;;;13.13;3.63;;;12.70;99.90;;;;;;5015276;28;20029;-72
2023/05/23 04:46:44;;;;;;;7.80;2.70;;;12.70;99.90;;;;;;5017123;28;20482;-72
2023/05/23 04:49:09;;;;;;;6.32;2.78;;;12.70;99.90;;;;;;5017502;28;20030;-73
2023/05/23 04:51:35;;;;;;;12.48;3.35;;;12.60;99.90;;;;;;5016960;28;20368;-71
2023/05/23 04:54:01;;;;;;;12.10;3.92;;;12.70;99.90;;;;;;5016943;28;20501;-72
2023/05/23 04:56:27;;;;;;;13.50;3.58;;;12.70;99.90;;;;;;5016919;28;20072;-72
2023/05/23 04:58:54;;;;;;;14.10;4.10;;;12.60;99.90;;;;;;5016892;28;20122;-72
2023/05/23 05:01:23;;;;;;;3.60;2.40;;;12.50;99.90;;;;;;5016877;28;20407;-71
2023/05/23 05:03:49;;;;;;;8.93;2.63;;;12.50;99.90;;;;;;5016929;28;20431;-72
2023/05/23 05:06:15;;;;;;;6.47;3.00;;;12.50;99.90;;;;;;5016806;28;20494;-71
2023/05/23 05:08:41;;;;;;;8.88;3.15;;;12.60;99.90;;;;;;5016745;28;20029;-72
2023/05/23 05:11:07;;;;;;;9.32;2.47;;;12.60;99.90;;;;;;5016152;28;20038;-71
2023/05/23 05:13:33;;;;;;;7.35;3.05;;;12.60;99.90;;;;;;5016661;28;20018;-71
2023/05/23 05:15:58;;;;;;;32.45;3.63;;;12.70;99.90;;;;;;5016572;28;20033;-72
2023/05/23 05:18:27;;;;;;;10.77;2.90;;;12.70;99.90;;;;;;5016499;28;20068;-72
2023/05/23 05:20:53;;;;;;;13.05;3.53;;;12.80;99.90;;;;;;5016530;28;20026;-72
2023/05/23 05:23:18;;;;;;;17.40;4.60;;;12.70;99.90;;;;;;5016481;28;20041;-71
2023/05/23 05:25:44;;;;;;;7.65;2.75;;;12.60;99.90;;;;;;5016226;28;20442;-71
2023/05/23 05:28:10;;;;;;;7.13;2.65;;;12.40;99.90;;;;;;5016346;28;20033;-72
2023/05/23 05:30:36;;;;;;;11.00;3.00;;;12.40;99.90;;;;;;5016308;28;20390;-71
2023/05/23 05:33:03;;;;;;;8.73;3.50;;;12.30;99.90;;;;;;5016180;28;20030;-71
2023/05/23 05:35:32;;;;;;;10.00;3.15;;;12.40;99.90;;;;;;5016338;28;20044;-71
2023/05/23 05:37:58;;;;;;;16.25;4.05;;;12.40;99.90;;;;;;5016034;28;20018;-72
2023/05/23 05:40:24;;;;;;;22.95;5.03;;;12.50;99.90;;;;;;5016118;28;20029;-72
2023/05/23 05:42:50;;;;;;;11.73;3.80;;;12.50;99.90;;;;;;5018479;28;20030;-71
2023/05/23 05:45:15;;;;;;;17.02;3.97;;;12.60;99.90;;;;;;5016016;28;20478;-71
2023/05/23 05:47:41;;;;;;;10.80;4.10;;;12.60;99.90;;;;;;5015862;28;20026;-72
2023/05/23 05:50:09;;;;;;;13.18;5.63;;;12.60;99.90;;;;;;5015934;28;20488;-71
2023/05/23 05:52:38;;;;;;;9.38;3.97;;;12.60;99.90;;;;;;5015886;28;20026;-71
2023/05/23 05:55:12;;;;;;;15.15;4.68;;;12.50;99.90;;;;;;5015585;28;20021;-71
2023/05/23 05:57:38;;;;;;;23.90;4.60;;;12.50;99.90;;;;;;5015822;28;20026;-72
2023/05/23 06:00:13;;;;;;;18.60;4.57;;;12.50;99.90;;;;;;5015786;28;20042;-71
2023/05/23 06:02:40;;;;;;;13.27;5.13;;;12.50;99.90;;;;;;5031003;28;20037;-71
2023/05/23 06:05:06;;;;;;;10.18;3.67;;;12.40;99.90;;;;;;5030757;28;20034;-71
2023/05/23 06:07:35;;;;;;;13.45;4.25;;;12.40;99.90;;;;;;5015665;28;20167;-71
2023/05/23 06:10:01;;;;;;;15.18;4.97;;;12.40;99.90;;;;;;5015512;28;20017;-72
2023/05/23 06:12:27;;;;;;;17.83;4.47;;;12.30;99.90;;;;;;5015463;28;20030;-72
2023/05/23 06:14:52;;;;;;;15.27;3.90;;;12.30;99.90;;;;;;5030679;28;20120;-72
2023/05/23 06:17:18;;;;;;;15.20;3.97;;;12.30;99.90;;;;;;5015428;28;20030;-71
2023/05/23 06:19:43;;;;;;;15.48;4.57;;;12.40;99.90;;;;;;5030550;28;20024;-72
2023/05/23 06:22:09;;;;;;;12.60;3.53;;;12.40;99.90;;;;;;5015296;28;20433;-72
2023/05/23 06:24:35;;;;;;;12.80;3.67;;;12.40;99.90;;;;;;5015174;28;20512;-71
2023/05/23 06:27:00;;;;;;;11.27;3.85;;;12.50;99.90;;;;;;5015270;28;20501;-71
2023/05/23 06:29:26;;;;;;;16.48;3.78;;;12.50;99.90;;;;;;5015206;28;20069;-70
2023/05/23 06:31:51;;;;;;;18.00;4.13;;;12.50;99.90;;;;;;5015090;28;20556;-71
2023/05/23 06:34:17;;;;;;;15.35;4.57;;;12.50;99.90;;;;;;5015058;28;20153;-71
2023/05/23 06:36:42;;;;;;;10.50;3.00;;;12.40;99.90;;;;;;5014857;28;20029;-71
2023/05/23 06:39:08;;;;;;;12.63;2.80;;;12.40;99.90;;;;;;5030469;28;20402;-71
2023/05/23 06:41:35;;;;;;;8.93;3.00;;;12.30;99.90;;;;;;5014976;28;20032;-71
2023/05/23 06:44:00;;;;;;;14.90;3.67;;;12.30;99.90;;;;;;5014907;28;20022;-71
2023/05/23 06:46:26;;;;;;;10.65;2.70;;;12.30;99.90;;;;;;5014874;28;20482;-71
2023/05/23 06:48:52;;;;;;;15.35;3.33;;;12.30;99.90;;;;;;5014733;28;20057;-72
2023/05/23 06:51:17;;;;;;;9.32;2.72;;;12.20;99.90;;;;;;5014678;28;20113;-71
2023/05/23 06:53:43;;;;;;;17.02;3.58;;;12.30;99.90;;;;;;5014984;28;20022;-71
2023/05/23 06:56:08;;;;;;;10.85;3.30;;;12.30;99.90;;;;;;5014625;28;20390;-72
2023/05/23 06:58:34;;;;;;;12.55;3.67;;;12.30;99.90;;;;;;5029834;28;20022;-73
2023/05/23 07:01:00;;;;;;;6.68;2.40;;;12.30;99.90;;;;;;5014539;28;20540;-71
2023/05/23 07:03:26;;;;;;;4.43;2.25;;;12.30;99.90;;;;;;5014369;28;20071;-72
2023/05/23 07:05:51;;;;;;;15.82;1.92;;;12.20;99.90;;;;;;5013688;28;20029;-71
2023/05/23 07:08:17;;;;;;;7.97;1.60;;;12.20;99.90;;;;;;5014518;28;20034;-71
2023/05/23 07:10:43;;;;;;;6.70;2.50;;;12.10;99.90;;;;;;5014309;28;20025;-72
2023/05/23 07:13:08;;;;;;;11.40;1.70;;;12.10;99.90;;;;;;5014317;28;20033;-72
2023/05/23 07:15:34;;;;;;;11.88;2.17;;;12.20;99.90;;;;;;5014306;28;20029;-72
2023/05/23 07:18:00;;;;;;;16.33;2.15;;;12.20;99.90;;;;;;5029376;28;20061;-72
2023/05/23 07:20:25;;;;;;;9.70;2.13;;;12.30;99.90;;;;;;5014297;28;20022;-71
2023/05/23 07:22:51;;;;;;;10.02;1.88;;;12.40;99.90;;;;;;5014165;28;20501;-72
2023/05/23 07:25:17;;;;;;;6.25;1.70;;;12.50;99.90;;;;;;5014095;28;20117;-71
2023/05/23 07:27:43;;;;;;;9.00;1.77;;;12.50;99.90;;;;;;5029366;28;20022;-72
2023/05/23 07:30:09;;;;;;;7.28;1.60;;;12.60;99.90;;;;;;5014126;28;20026;-71
2023/05/23 07:32:35;;;;;;;13.82;2.30;;;12.60;99.90;;;;;;5013974;28;20030;-71
2023/05/23 07:35:01;;;;;;;8.32;1.63;;;12.60;99.90;;;;;;5014027;28;20018;-72
2023/05/23 07:37:27;;;;;;;9.75;1.83;;;12.60;99.90;;;;;;5013884;28;20025;-71
2023/05/23 07:39:53;;;;;;;15.40;1.88;;;12.70;99.90;;;;;;5013842;28;20018;-73
2023/05/23 07:42:18;;;;;;;13.27;2.60;;;12.80;99.90;;;;;;5013776;28;20040;-71
2023/05/23 07:44:44;;;;;;;7.07;2.17;;;12.80;99.90;;;;;;5013840;28;20022;-72
2023/05/23 07:47:09;;;;;;;17.85;3.08;;;12.90;99.90;;;;;;5013685;28;20125;-71
2023/05/23 07:49:35;;;;;;;14.63;3.58;;;13.00;99.90;;;;;;5013757;28;20464;-72
2023/05/23 07:52:01;;;;;;;7.10;2.58;;;13.10;99.90;;;;;;5013697;28;20022;-71
2023/05/23 07:54:26;;;;;;;11.57;2.47;;;13.20;99.90;;;;;;5013621;28;20034;-71
2023/05/23 07:56:53;;;;;;;20.10;2.65;;;13.20;99.90;;;;;;5013545;28;20026;-70
2023/05/23 07:59:19;;;;;;;10.45;2.00;;;13.10;99.90;;;;;;5013524;28;20022;-71
2023/05/23 08:01:45;;;;;;;11.95;3.10;;;13.10;99.90;;;;;;5013415;28;20026;-71
2023/05/23 08:04:10;;;;;;;12.93;2.08;;;13.00;99.90;;;;;;5013483;28;20030;-71
2023/05/23 08:06:36;;;;;;;19.65;2.53;;;13.00;99.90;;;;;;5013378;28;20033;-71
2023/05/23 08:09:05;;;;;;;9.07;1.40;;;13.00;99.90;;;;;;5013452;28;20083;-71
2023/05/23 08:11:30;;;;;;;5.65;1.65;;;13.10;99.90;;;;;;5028393;28;20081;-72
2023/05/23 08:13:58;;;;;;;10.15;3.15;;;13.30;99.90;;;;;;5013269;28;20125;-72
2023/05/23 08:16:24;;;;;;;10.15;2.58;;;13.50;99.90;;;;;;5013425;28;20022;-72
2023/05/23 08:18:50;;;;;;;5.68;1.50;;;13.60;99.90;;;;;;5013274;28;20014;-71
2023/05/23 08:21:15;;;;;;;7.57;2.22;;;13.50;99.90;;;;;;5013285;28;20475;-71
2023/05/23 08:23:41;;;;;;;10.00;1.70;;;13.80;99.90;;;;;;5013305;28;20021;-72
2023/05/23 08:26:07;;;;;;;8.07;1.63;;;14.10;99.90;;;;;;5012991;28;20490;-71
2023/05/23 08:28:33;;;;;;;14.00;1.88;;;14.10;99.90;;;;;;5013243;28;20029;-71
2023/05/23 08:30:59;;;;;;;10.10;2.17;;;14.00;99.90;;;;;;5028349;28;20033;-72
2023/05/23 08:33:25;;;;;;;7.65;2.08;;;14.00;99.90;;;;;;5013029;28;20034;-70
2023/05/23 08:35:51;;;;;;;10.18;2.22;;;14.00;99.90;;;;;;5013060;28;20026;-72
2023/05/23 08:38:20;;;;;;;6.72;1.98;;;13.80;99.90;;;;;;5013006;28;20080;-71
2023/05/23 08:40:51;;;;;;;8.80;2.55;;;13.80;99.90;;;;;;5012977;28;20026;-71
2023/05/23 08:43:18;;;;;;;12.80;2.20;;;13.80;99.90;;;;;;5013056;28;20033;-71
2023/05/23 08:45:44;;;;;;;15.88;2.30;;;13.90;99.90;;;;;;5013041;28;20022;-71
2023/05/23 08:48:13;;;;;;;23.80;2.30;;;13.80;99.90;;;;;;5012932;28;20025;-70
2023/05/23 08:50:41;;;;;;;10.00;2.10;;;13.60;99.90;;;;;;5012962;28;20054;-71
2023/05/23 08:53:09;;;;;;;13.57;2.85;;;13.50;99.90;;;;;;5012811;28;20481;-70
2023/05/23 08:55:37;;;;;;;10.25;2.00;;;13.50;99.90;;;;;;5012951;28;20099;-72
2023/05/23 08:58:02;;;;;;;;;;;13.50;99.90;;;;;;5013326;28;20119;-72
2023/05/23 09:00:28;;;;;;;7.72;2.00;;;13.50;99.90;;;;;;5013227;28;19968;-71
2023/05/23 09:02:55;;;;;;;13.02;2.15;;;13.50;99.90;;;;;;5012913;28;20391;-70
2023/05/23 09:05:21;;;;;;;13.38;3.15;;;13.60;99.90;;;;;;5011655;28;20044;-71
2023/05/23 09:07:48;;;;;;;14.63;2.03;;;13.90;99.90;;;;;;5012834;28;20105;-71
2023/05/23 09:10:17;;;;;;;9.57;1.42;;;14.10;99.90;;;;;;5012444;28;20382;-72
2023/05/23 09:12:42;;;;;;;10.40;3.05;;;14.20;99.90;;;;;;5027863;28;20034;-71
2023/05/23 09:15:09;;;;;;;5.40;1.90;;;14.20;99.90;;;;;;5012527;28;20033;-72
2023/05/23 09:17:36;;;;;;;13.02;2.28;;;14.10;99.90;;;;;;5012794;28;20021;-71
2023/05/23 09:20:09;;;;;;;21.70;2.47;;;14.10;99.90;;;;;;5012783;28;20046;-71
2023/05/23 09:22:35;;;;;;;5.85;1.33;;;14.10;99.90;;;;;;5012860;28;20101;-71
2023/05/23 09:25:01;;;;;;;23.90;1.85;;;14.40;99.90;;;;;;5012597;28;20081;-70
2023/05/23 09:27:27;;;;;;;11.32;2.03;;;14.50;99.90;;;;;;5012698;28;20041;-71
2023/05/23 09:29:52;;;;;;;5.93;1.70;;;14.40;99.90;;;;;;5014040;28;20489;-72
2023/05/23 09:32:20;;;;;;;17.02;2.92;;;14.30;99.90;;;;;;5015994;28;20029;-71
2023/05/23 09:35:01;;;;;;;8.25;2.55;;;14.50;99.90;;;;;;5016353;28;20036;-71
2023/05/23 09:37:39;;;;;;;10.23;2.60;;;15.10;99.90;;;;;;5016187;28;20025;-71
2023/05/23 09:40:10;;;;;;;17.70;2.53;;;15.20;99.90;;;;;;5016288;28;20109;-74
2023/05/23 09:42:43;;;;;;;5.68;1.40;;;14.90;99.90;;;;;;5016199;28;20045;-71
2023/05/23 09:45:10;;;;;;;8.45;2.00;;;14.80;99.90;;;;;;5031403;28;20041;-71
2023/05/23 09:47:36;;;;;;;8.48;2.05;;;14.80;99.90;;;;;;5016035;28;20034;-72
2023/05/23 09:50:02;;;;;;;13.85;2.10;;;14.80;99.90;;;;;;5016058;28;20079;-71
2023/05/23 09:52:37;;;;;;;14.35;1.92;;;14.90;99.90;;;;;;5015938;28;20033;-71
2023/05/23 09:55:03;;;;;;;12.43;1.73;;;15.00;99.90;;;;;;5016060;28;20060;-72
2023/05/23 09:57:30;;;;;;;11.20;2.53;;;14.90;99.90;;;;;;5015842;28;20045;-71
2023/05/23 09:59:59;;;;;;;11.75;2.42;;;14.80;99.90;;;;;;5015779;28;20050;-72
2023/05/23 10:03:02;;;;;;;13.18;2.03;;;14.70;99.90;;;;;;5015810;28;20080;-71
2023/05/23 10:05:42;;;;;;;8.00;1.92;;;14.50;99.90;;;;;;5015692;28;20072;-71
2023/05/23 10:08:28;;;;;;;3.42;1.40;;;14.40;99.90;;;;;;5015702;28;20044;-71
2023/05/23 10:10:57;;;;;;;14.48;2.22;;;14.50;99.90;;;;;;5015642;28;20379;-73
2023/05/23 10:13:27;;;;;;;17.77;1.70;;;14.70;99.90;;;;;;5015483;28;20042;-71
2023/05/23 10:16:00;;;;;;;10.48;1.95;;;14.60;99.90;;;;;;5015531;28;20555;-71
2023/05/23 10:18:29;;;;;;;10.63;1.58;;;14.60;99.90;;;;;;5015520;28;20516;-72
2023/05/23 10:21:01;;;;;;;5.28;1.45;;;14.60;99.90;;;;;;5015389;28;20022;-72
2023/05/23 10:23:28;;;;;;;14.85;2.50;;;14.70;99.90;;;;;;5015355;28;20494;-72
2023/05/23 10:25:54;;;;;;;13.18;2.15;;;14.70;99.90;;;;;;5015090;28;20052;-71
2023/05/23 10:28:20;;;;;;;6.82;1.27;;;14.70;99.90;;;;;;5015268;28;20034;-71
2023/05/23 10:30:47;;;;;;;8.30;2.05;;;14.60;99.90;;;;;;5015238;28;20034;-71
2023/05/23 10:33:15;;;;;;;11.85;2.67;;;14.60;99.90;;;;;;5015124;28;20037;-71
2023/05/23 10:35:58;;;;;;;14.27;1.48;;;14.70;99.90;;;;;;5015110;28;20490;-71
2023/05/23 10:38:41;;;;;;;13.20;1.80;;;15.00;99.90;;;;;;5014975;28;20080;-71
2023/05/23 10:41:20;;;;;;;7.35;1.45;;;15.20;99.90;;;;;;5013945;28;20018;-72
2023/05/23 10:44:11;;;;;;;2.85;1.70;;;15.40;99.90;;;;;;5014979;28;20430;-70
2023/05/23 10:46:56;;;;;;;11.65;2.08;;;15.10;99.90;;;;;;5014807;28;20030;-72
2023/05/23 10:49:43;;;;;;;7.25;2.20;;;14.90;99.90;;;;;;5029565;28;20064;-72
2023/05/23 10:52:14;;;;;;;5.95;2.15;;;14.80;99.90;;;;;;5014798;28;20036;-71
2023/05/23 10:54:50;;;;;;;9.18;1.70;;;15.00;99.90;;;;;;5014756;28;20029;-72
2023/05/23 10:57:20;;;;;;;4.45;1.30;;;15.10;99.90;;;;;;5014987;28;20421;-71
2023/05/23 10:59:49;;;;;;;4.43;2.33;;;15.20;99.90;;;;;;5014707;28;20072;-72
2023/05/23 11:02:18;;;;;;;4.55;1.45;;;15.10;99.90;;;;;;5014633;28;20029;-71
2023/05/23 11:04:44;;;;;;;9.93;2.00;;;15.20;99.90;;;;;;5014595;28;20444;-71
2023/05/23 11:07:32;;;;;;;13.98;2.55;;;15.40;99.90;;;;;;5014621;28;20061;-71
2023/05/23 11:10:15;;;;;;;16.90;1.50;;;15.50;99.90;;;;;;5014999;28;20050;-71
2023/05/23 11:12:42;;;;;;;11.02;2.72;;;15.10;99.90;;;;;;5014491;28;20172;-71
2023/05/23 11:15:17;;;;;;;8.50;2.30;;;15.00;99.90;;;;;;5014368;28;20046;-72
2023/05/23 11:18:05;;;;;;;6.25;1.38;;;15.10;99.90;;;;;;5014344;28;20296;-71
2023/05/23 11:20:31;;;;;;;9.00;2.65;;;15.10;99.90;;;;;;5014288;28;20033;-72
2023/05/23 11:23:02;;;;;;;8.18;1.60;;;15.20;99.90;;;;;;5014183;28;20018;-71
2023/05/23 11:25:44;;;;;;;7.32;1.70;;;15.30;99.90;;;;;;5014006;28;20578;-72
2023/05/23 11:28:11;;;;;;;13.73;1.90;;;15.20;99.90;;;;;;5014098;28;20029;-71
2023/05/23 11:30:38;;;;;;;14.18;1.80;;;15.40;99.90;;;;;;5014153;28;20026;-72
2023/05/23 11:33:11;;;;;;;4.05;1.60;;;15.50;99.90;;;;;;5013933;28;20100;-71
2023/05/23 11:35:36;;;;;;;11.85;2.95;;;15.60;99.90;;;;;;5014031;28;20443;-72
2023/05/23 11:38:05;;;;;;;6.75;1.77;;;15.70;99.90;;;;;;5013832;28;20046;-71
2023/05/23 11:40:53;;;;;;;11.55;1.67;;;15.90;99.90;;;;;;5013940;28;20032;-72
2023/05/23 11:43:19;;;;;;;5.47;1.40;;;15.80;99.90;;;;;;5008360;28;20034;-71
2023/05/23 11:45:45;;;;;;;13.32;2.80;;;15.50;99.90;;;;;;5013837;28;20037;-72
2023/05/23 11:48:16;;;;;;;10.98;1.73;;;15.70;99.90;;;;;;5013751;28;20364;-72
2023/05/23 11:50:47;;;;;;;5.45;1.60;;;15.90;99.90;;;;;;5013815;28;20025;-72
2023/05/23 11:53:17;;;;;;;20.73;2.65;;;15.90;99.90;;;;;;5013663;28;20061;-73
2023/05/23 11:55:57;;;;;;;13.27;3.05;;;15.80;99.90;;;;;;5013610;28;20049;-72
2023/05/23 11:58:32;;;;;;;11.50;2.20;;;15.60;99.90;;;;;;5013708;28;20367;-73
2023/05/23 12:01:02;;;;;;;18.77;2.28;;;15.30;99.90;;;;;;5028822;28;20084;-70
2023/05/23 12:03:28;;;;;;;13.43;2.33;;;15.10;99.90;;;;;;5013597;28;20018;-71
2023/05/23 12:05:54;;;;;;;6.95;1.85;;;15.10;99.90;;;;;;5013524;28;20018;-71
2023/05/23 12:08:20;;;;;;;9.45;1.40;;;15.20;99.90;;;;;;5013557;28;20022;-71
2023/05/23 12:10:52;;;;;;;5.38;1.77;;;15.30;99.90;;;;;;5013423;28;20371;-71
2023/05/23 12:13:18;;;;;;;14.20;1.67;;;15.20;99.90;;;;;;5013384;28;20064;-71
2023/05/23 12:15:45;;;;;;;6.25;1.92;;;15.10;99.90;;;;;;5013453;28;20105;-71
2023/05/23 12:18:11;;;;;;;8.38;1.40;;;15.20;99.90;;;;;;5013578;28;20167;-74
2023/05/23 12:20:37;;;;;;;9.68;2.22;;;15.50;99.90;;;;;;5013529;28;20076;-72
2023/05/23 12:23:03;;;;;;;11.75;2.65;;;15.50;99.90;;;;;;5013579;28;20089;-70
2023/05/23 12:25:36;;;;;;;11.77;1.80;;;15.40;99.90;;;;;;5013239;28;20113;-71
2023/05/23 12:28:02;;;;;;;8.40;1.60;;;15.60;99.90;;;;;;5012176;28;20018;-72
2023/05/23 12:30:40;;;;;;;4.03;1.20;;;15.90;99.90;;;;;;5013423;28;20098;-74
2023/05/23 12:33:08;;;;;;;9.23;1.52;;;16.10;99.90;;;;;;5013338;28;20109;-71
2023/05/23 12:35:34;;;;;;;5.10;2.13;;;16.20;99.90;;;;;;5013251;28;20080;-79
2023/05/23 12:37:59;;;;;;;5.53;1.50;;;16.30;99.90;;;;;;5013200;28;20163;-72
2023/05/23 12:40:25;;;;;;;6.13;1.52;;;16.40;99.90;;;;;;5013365;28;20451;-71
2023/05/23 12:42:55;;;;;;;6.32;1.33;;;16.30;99.90;;;;;;5013260;28;20032;-72
2023/05/23 12:45:35;;;;;;;6.18;1.55;;;15.80;99.90;;;;;;5013085;28;20105;-72